Buck Creek, Indiana
Current Conditions -  °F | °C
As of 12:54 PM on Sunday 21 Dec 2014 (Local Time) from KLAF Reporting Station
Clear Clear  
Wind Chill: 29°   Ceiling: Unl
Heat Index: 36°   Visibility: 10mi
Dew Point: 28°   Wind: 9mph
Humidity: 73%   Direction: 160°SSE
Pressure: 30.2"   Gusts: NA
Location:  40.49°N, 86.76°W
Report Text: KLAF 211754Z 16008KT 10SM CLR 02/M02 A3020 RMK AO2 SLP233 T00221022 10022 21039 58024
Loading
Personal Weather Stations






























Interactive Weather Map New forecast layout! Learn more

10-Day Weather Forecast

Advertisements
Track Severe Weather on mobile